sensor_id;sensor_type;location;lat;lon;timestamp;P1;durP1;ratioP1;P2;durP2;ratioP2
60819;SDS011;46641;48.904;9.126;2024-01-30T00:03:18;12.30;;;8.73;;
60819;SDS011;46641;48.904;9.126;2024-01-30T00:08:08;11.73;;;8.23;;
60819;SDS011;46641;48.904;9.126;2024-01-30T00:12:58;11.23;;;8.35;;
60819;SDS011;46641;48.904;9.126;2024-01-30T00:17:49;10.75;;;9.60;;
60819;SDS011;46641;48.904;9.126;2024-01-30T00:22:41;9.43;;;8.00;;
60819;SDS011;46641;48.904;9.126;2024-01-30T00:27:32;10.68;;;8.80;;
60819;SDS011;46641;48.904;9.126;2024-01-30T00:32:22;12.40;;;9.27;;
60819;SDS011;46641;48.904;9.126;2024-01-30T00:37:13;11.53;;;7.87;;
60819;SDS011;46641;48.904;9.126;2024-01-30T00:42:03;11.27;;;9.33;;
60819;SDS011;46641;48.904;9.126;2024-01-30T00:46:54;9.90;;;8.90;;
60819;SDS011;46641;48.904;9.126;2024-01-30T00:51:44;9.95;;;8.10;;
60819;SDS011;46641;48.904;9.126;2024-01-30T00:56:35;9.67;;;7.50;;
60819;SDS011;46641;48.904;9.126;2024-01-30T01:01:25;9.85;;;7.00;;
60819;SDS011;46641;48.904;9.126;2024-01-30T01:06:15;8.70;;;6.78;;
60819;SDS011;46641;48.904;9.126;2024-01-30T01:11:05;8.52;;;6.78;;
60819;SDS011;46641;48.904;9.126;2024-01-30T01:15:56;8.60;;;7.20;;
60819;SDS011;46641;48.904;9.126;2024-01-30T01:20:46;9.80;;;7.95;;
60819;SDS011;46641;48.904;9.126;2024-01-30T01:25:36;11.20;;;7.50;;
60819;SDS011;46641;48.904;9.126;2024-01-30T01:30:27;8.85;;;7.63;;
60819;SDS011;46641;48.904;9.126;2024-01-30T01:35:19;8.90;;;7.80;;
60819;SDS011;46641;48.904;9.126;2024-01-30T01:40:09;10.23;;;7.47;;
60819;SDS011;46641;48.904;9.126;2024-01-30T01:44:59;10.07;;;7.87;;
60819;SDS011;46641;48.904;9.126;2024-01-30T01:49:50;9.68;;;8.57;;
60819;SDS011;46641;48.904;9.126;2024-01-30T01:54:40;10.40;;;8.43;;
60819;SDS011;46641;48.904;9.126;2024-01-30T01:59:31;11.73;;;8.77;;
60819;SDS011;46641;48.904;9.126;2024-01-30T02:04:23;9.93;;;7.90;;
60819;SDS011;46641;48.904;9.126;2024-01-30T02:09:13;10.33;;;8.20;;
60819;SDS011;46641;48.904;9.126;2024-01-30T02:14:04;8.77;;;7.45;;
60819;SDS011;46641;48.904;9.126;2024-01-30T02:18:54;10.73;;;7.47;;
60819;SDS011;46641;48.904;9.126;2024-01-30T02:23:46;10.13;;;7.90;;
60819;SDS011;46641;48.904;9.126;2024-01-30T02:28:37;10.10;;;7.53;;
60819;SDS011;46641;48.904;9.126;2024-01-30T02:33:27;11.90;;;8.33;;
60819;SDS011;46641;48.904;9.126;2024-01-30T02:38:18;8.32;;;7.40;;
60819;SDS011;46641;48.904;9.126;2024-01-30T02:43:08;9.33;;;7.90;;
60819;SDS011;46641;48.904;9.126;2024-01-30T02:47:58;11.88;;;8.25;;
60819;SDS011;46641;48.904;9.126;2024-01-30T02:52:48;9.45;;;7.65;;
60819;SDS011;46641;48.904;9.126;2024-01-30T02:57:39;8.45;;;7.57;;
60819;SDS011;46641;48.904;9.126;2024-01-30T03:02:29;8.95;;;7.22;;
60819;SDS011;46641;48.904;9.126;2024-01-30T03:07:19;8.88;;;7.97;;
60819;SDS011;46641;48.904;9.126;2024-01-30T03:12:10;7.00;;;6.30;;
60819;SDS011;46641;48.904;9.126;2024-01-30T03:17:00;10.67;;;7.50;;
60819;SDS011;46641;48.904;9.126;2024-01-30T03:21:50;9.57;;;8.17;;
60819;SDS011;46641;48.904;9.126;2024-01-30T03:26:41;9.53;;;7.47;;
60819;SDS011;46641;48.904;9.126;2024-01-30T03:31:31;9.77;;;7.90;;
60819;SDS011;46641;48.904;9.126;2024-01-30T03:36:22;10.97;;;7.57;;
60819;SDS011;46641;48.904;9.126;2024-01-30T03:41:12;8.70;;;7.35;;
60819;SDS011;46641;48.904;9.126;2024-01-30T03:46:02;10.00;;;7.32;;
60819;SDS011;46641;48.904;9.126;2024-01-30T03:50:53;8.77;;;7.43;;
60819;SDS011;46641;48.904;9.126;2024-01-30T03:55:43;7.80;;;6.22;;
60819;SDS011;46641;48.904;9.126;2024-01-30T04:00:33;9.63;;;7.85;;
60819;SDS011;46641;48.904;9.126;2024-01-30T04:05:24;8.77;;;7.80;;
60819;SDS011;46641;48.904;9.126;2024-01-30T04:10:14;8.35;;;6.78;;
60819;SDS011;46641;48.904;9.126;2024-01-30T04:15:04;10.93;;;7.97;;
60819;SDS011;46641;48.904;9.126;2024-01-30T04:19:55;9.77;;;7.77;;
60819;SDS011;46641;48.904;9.126;2024-01-30T04:24:45;8.60;;;7.63;;
60819;SDS011;46641;48.904;9.126;2024-01-30T04:29:36;10.40;;;7.97;;
60819;SDS011;46641;48.904;9.126;2024-01-30T04:34:26;15.73;;;12.00;;
60819;SDS011;46641;48.904;9.126;2024-01-30T04:39:17;7.67;;;6.97;;
60819;SDS011;46641;48.904;9.126;2024-01-30T04:44:07;8.07;;;7.28;;
60819;SDS011;46641;48.904;9.126;2024-01-30T04:48:57;9.30;;;7.78;;
60819;SDS011;46641;48.904;9.126;2024-01-30T04:53:48;8.77;;;7.10;;
60819;SDS011;46641;48.904;9.126;2024-01-30T04:58:38;9.45;;;8.38;;
60819;SDS011;46641;48.904;9.126;2024-01-30T05:03:28;10.50;;;8.40;;
60819;SDS011;46641;48.904;9.126;2024-01-30T05:08:18;8.73;;;7.07;;
60819;SDS011;46641;48.904;9.126;2024-01-30T05:13:09;8.37;;;7.30;;
60819;SDS011;46641;48.904;9.126;2024-01-30T05:17:59;7.18;;;6.45;;
60819;SDS011;46641;48.904;9.126;2024-01-30T05:22:49;8.13;;;7.32;;
60819;SDS011;46641;48.904;9.126;2024-01-30T05:27:39;8.80;;;7.70;;
60819;SDS011;46641;48.904;9.126;2024-01-30T05:32:30;9.17;;;7.67;;
60819;SDS011;46641;48.904;9.126;2024-01-30T05:37:20;10.97;;;7.83;;
60819;SDS011;46641;48.904;9.126;2024-01-30T05:42:10;9.55;;;7.25;;
60819;SDS011;46641;48.904;9.126;2024-01-30T05:47:01;9.13;;;7.53;;
60819;SDS011;46641;48.904;9.126;2024-01-30T05:51:51;9.10;;;7.70;;
60819;SDS011;46641;48.904;9.126;2024-01-30T05:56:41;8.40;;;7.60;;
60819;SDS011;46641;48.904;9.126;2024-01-30T06:01:32;7.53;;;6.77;;
60819;SDS011;46641;48.904;9.126;2024-01-30T06:06:22;10.03;;;6.97;;
60819;SDS011;46641;48.904;9.126;2024-01-30T06:11:12;8.35;;;7.43;;
60819;SDS011;46641;48.904;9.126;2024-01-30T06:16:03;8.53;;;7.70;;
60819;SDS011;46641;48.904;9.126;2024-01-30T06:20:54;9.03;;;7.50;;
60819;SDS011;46641;48.904;9.126;2024-01-30T06:25:44;8.52;;;7.28;;
60819;SDS011;46641;48.904;9.126;2024-01-30T06:30:34;8.17;;;7.03;;
60819;SDS011;46641;48.904;9.126;2024-01-30T06:35:25;7.93;;;7.13;;
60819;SDS011;46641;48.904;9.126;2024-01-30T06:40:15;9.27;;;7.43;;
60819;SDS011;46641;48.904;9.126;2024-01-30T06:45:05;11.97;;;8.27;;
60819;SDS011;46641;48.904;9.126;2024-01-30T06:49:56;9.37;;;7.50;;
60819;SDS011;46641;48.904;9.126;2024-01-30T06:54:46;9.02;;;7.25;;
60819;SDS011;46641;48.904;9.126;2024-01-30T06:59:37;9.13;;;7.87;;
60819;SDS011;46641;48.904;9.126;2024-01-30T07:04:33;10.23;;;8.23;;
60819;SDS011;46641;48.904;9.126;2024-01-30T07:09:23;9.77;;;8.30;;
60819;SDS011;46641;48.904;9.126;2024-01-30T07:14:13;11.18;;;9.18;;
60819;SDS011;46641;48.904;9.126;2024-01-30T07:19:04;11.50;;;8.57;;
60819;SDS011;46641;48.904;9.126;2024-01-30T07:23:54;8.77;;;7.67;;
60819;SDS011;46641;48.904;9.126;2024-01-30T07:28:45;9.93;;;7.80;;
60819;SDS011;46641;48.904;9.126;2024-01-30T07:33:35;11.15;;;8.57;;
60819;SDS011;46641;48.904;9.126;2024-01-30T07:38:26;11.03;;;7.80;;
60819;SDS011;46641;48.904;9.126;2024-01-30T07:43:16;8.97;;;8.07;;
60819;SDS011;46641;48.904;9.126;2024-01-30T07:48:06;13.07;;;10.17;;
60819;SDS011;46641;48.904;9.126;2024-01-30T07:52:57;15.33;;;11.90;;
60819;SDS011;46641;48.904;9.126;2024-01-30T07:57:49;15.07;;;11.53;;
60819;SDS011;46641;48.904;9.126;2024-01-30T08:02:39;14.83;;;9.80;;
60819;SDS011;46641;48.904;9.126;2024-01-30T08:07:30;9.37;;;8.43;;
60819;SDS011;46641;48.904;9.126;2024-01-30T08:12:20;10.43;;;8.47;;
60819;SDS011;46641;48.904;9.126;2024-01-30T08:17:10;10.60;;;8.23;;
60819;SDS011;46641;48.904;9.126;2024-01-30T08:22:01;10.32;;;8.40;;
60819;SDS011;46641;48.904;9.126;2024-01-30T08:26:52;14.70;;;9.03;;
60819;SDS011;46641;48.904;9.126;2024-01-30T08:31:43;8.67;;;7.77;;
60819;SDS011;46641;48.904;9.126;2024-01-30T08:36:34;10.33;;;9.10;;
60819;SDS011;46641;48.904;9.126;2024-01-30T08:41:24;8.90;;;8.07;;
60819;SDS011;46641;48.904;9.126;2024-01-30T08:46:18;12.93;;;10.77;;
60819;SDS011;46641;48.904;9.126;2024-01-30T08:51:09;10.63;;;9.50;;
60819;SDS011;46641;48.904;9.126;2024-01-30T08:55:59;11.93;;;8.27;;
60819;SDS011;46641;48.904;9.126;2024-01-30T09:00:49;10.47;;;8.73;;
60819;SDS011;46641;48.904;9.126;2024-01-30T09:05:41;8.57;;;7.67;;
60819;SDS011;46641;48.904;9.126;2024-01-30T09:10:32;10.00;;;8.90;;
60819;SDS011;46641;48.904;9.126;2024-01-30T09:15:22;9.30;;;8.20;;
60819;SDS011;46641;48.904;9.126;2024-01-30T09:20:12;14.50;;;9.37;;
60819;SDS011;46641;48.904;9.126;2024-01-30T09:25:03;8.20;;;7.40;;
60819;SDS011;46641;48.904;9.126;2024-01-30T09:29:53;9.67;;;7.80;;
60819;SDS011;46641;48.904;9.126;2024-01-30T09:34:44;11.37;;;7.37;;
60819;SDS011;46641;48.904;9.126;2024-01-30T09:39:34;11.77;;;8.07;;
60819;SDS011;46641;48.904;9.126;2024-01-30T09:44:25;9.77;;;7.77;;
60819;SDS011;46641;48.904;9.126;2024-01-30T09:49:16;10.10;;;7.27;;
60819;SDS011;46641;48.904;9.126;2024-01-30T09:54:08;8.77;;;7.10;;
60819;SDS011;46641;48.904;9.126;2024-01-30T09:58:59;10.80;;;7.70;;
60819;SDS011;46641;48.904;9.126;2024-01-30T10:03:50;12.10;;;8.03;;
60819;SDS011;46641;48.904;9.126;2024-01-30T10:08:42;9.77;;;7.30;;
60819;SDS011;46641;48.904;9.126;2024-01-30T10:13:32;8.83;;;7.40;;
60819;SDS011;46641;48.904;9.126;2024-01-30T10:18:23;12.33;;;7.87;;
60819;SDS011;46641;48.904;9.126;2024-01-30T10:23:14;8.50;;;7.70;;
60819;SDS011;46641;48.904;9.126;2024-01-30T10:28:04;13.20;;;8.57;;
60819;SDS011;46641;48.904;9.126;2024-01-30T10:32:55;10.90;;;8.00;;
60819;SDS011;46641;48.904;9.126;2024-01-30T10:37:48;11.13;;;8.37;;
60819;SDS011;46641;48.904;9.126;2024-01-30T10:42:40;10.83;;;7.73;;
60819;SDS011;46641;48.904;9.126;2024-01-30T10:47:33;10.57;;;8.00;;
60819;SDS011;46641;48.904;9.126;2024-01-30T10:52:25;9.30;;;8.07;;
60819;SDS011;46641;48.904;9.126;2024-01-30T10:57:16;9.90;;;7.97;;
60819;SDS011;46641;48.904;9.126;2024-01-30T11:02:07;10.00;;;8.77;;
60819;SDS011;46641;48.904;9.126;2024-01-30T11:06:59;14.30;;;9.67;;
60819;SDS011;46641;48.904;9.126;2024-01-30T11:11:51;12.57;;;9.50;;
60819;SDS011;46641;48.904;9.126;2024-01-30T11:16:49;11.93;;;8.47;;
60819;SDS011;46641;48.904;9.126;2024-01-30T11:21:41;13.18;;;10.95;;
60819;SDS011;46641;48.904;9.126;2024-01-30T11:26:32;13.10;;;11.10;;
60819;SDS011;46641;48.904;9.126;2024-01-30T11:31:23;14.57;;;11.40;;
60819;SDS011;46641;48.904;9.126;2024-01-30T11:36:13;12.50;;;9.90;;
60819;SDS011;46641;48.904;9.126;2024-01-30T11:41:05;10.93;;;9.83;;
60819;SDS011;46641;48.904;9.126;2024-01-30T11:45:55;14.20;;;10.83;;
60819;SDS011;46641;48.904;9.126;2024-01-30T11:50:46;14.60;;;10.20;;
60819;SDS011;46641;48.904;9.126;2024-01-30T11:55:36;12.97;;;10.70;;
60819;SDS011;46641;48.904;9.126;2024-01-30T12:00:27;14.03;;;12.43;;
60819;SDS011;46641;48.904;9.126;2024-01-30T12:05:19;12.70;;;11.40;;
60819;SDS011;46641;48.904;9.126;2024-01-30T12:10:09;18.00;;;12.07;;
60819;SDS011;46641;48.904;9.126;2024-01-30T12:15:01;13.23;;;11.93;;
60819;SDS011;46641;48.904;9.126;2024-01-30T12:20:02;13.67;;;11.37;;
60819;SDS011;46641;48.904;9.126;2024-01-30T12:24:53;12.47;;;11.27;;
60819;SDS011;46641;48.904;9.126;2024-01-30T12:29:43;15.20;;;12.50;;
60819;SDS011;46641;48.904;9.126;2024-01-30T12:34:33;14.83;;;11.83;;
60819;SDS011;46641;48.904;9.126;2024-01-30T12:39:24;12.88;;;11.63;;
60819;SDS011;46641;48.904;9.126;2024-01-30T12:44:14;14.50;;;11.80;;
60819;SDS011;46641;48.904;9.126;2024-01-30T12:49:05;13.53;;;12.03;;
60819;SDS011;46641;48.904;9.126;2024-01-30T12:53:55;14.20;;;12.70;;
60819;SDS011;46641;48.904;9.126;2024-01-30T12:58:45;14.57;;;13.17;;
60819;SDS011;46641;48.904;9.126;2024-01-30T13:03:36;13.77;;;12.07;;
60819;SDS011;46641;48.904;9.126;2024-01-30T13:08:27;14.87;;;13.27;;
60819;SDS011;46641;48.904;9.126;2024-01-30T13:13:17;15.97;;;12.73;;
60819;SDS011;46641;48.904;9.126;2024-01-30T13:18:07;14.40;;;12.30;;
60819;SDS011;46641;48.904;9.126;2024-01-30T13:22:58;20.73;;;14.80;;
60819;SDS011;46641;48.904;9.126;2024-01-30T13:27:48;16.00;;;12.73;;
60819;SDS011;46641;48.904;9.126;2024-01-30T13:32:38;16.87;;;13.20;;
60819;SDS011;46641;48.904;9.126;2024-01-30T13:37:31;15.97;;;13.43;;
60819;SDS011;46641;48.904;9.126;2024-01-30T13:42:21;14.13;;;11.90;;
60819;SDS011;46641;48.904;9.126;2024-01-30T13:47:11;18.87;;;11.07;;
60819;SDS011;46641;48.904;9.126;2024-01-30T13:52:02;13.80;;;10.47;;
60819;SDS011;46641;48.904;9.126;2024-01-30T13:56:53;13.53;;;11.23;;
60819;SDS011;46641;48.904;9.126;2024-01-30T14:01:44;21.57;;;12.30;;
60819;SDS011;46641;48.904;9.126;2024-01-30T14:06:34;13.97;;;11.77;;
60819;SDS011;46641;48.904;9.126;2024-01-30T14:11:24;13.03;;;11.10;;
60819;SDS011;46641;48.904;9.126;2024-01-30T14:16:15;14.00;;;10.50;;
60819;SDS011;46641;48.904;9.126;2024-01-30T14:21:05;13.65;;;9.80;;
60819;SDS011;46641;48.904;9.126;2024-01-30T14:26:10;13.20;;;10.27;;
60819;SDS011;46641;48.904;9.126;2024-01-30T14:31:00;12.47;;;9.53;;
60819;SDS011;46641;48.904;9.126;2024-01-30T14:35:50;13.43;;;9.73;;
60819;SDS011;46641;48.904;9.126;2024-01-30T14:40:41;15.13;;;11.57;;
60819;SDS011;46641;48.904;9.126;2024-01-30T14:45:31;13.90;;;11.03;;
60819;SDS011;46641;48.904;9.126;2024-01-30T14:50:22;16.07;;;11.20;;
60819;SDS011;46641;48.904;9.126;2024-01-30T14:55:12;13.53;;;12.17;;
60819;SDS011;46641;48.904;9.126;2024-01-30T15:00:03;17.67;;;12.93;;
60819;SDS011;46641;48.904;9.126;2024-01-30T15:04:54;15.27;;;12.83;;
60819;SDS011;46641;48.904;9.126;2024-01-30T15:09:44;15.23;;;11.95;;
60819;SDS011;46641;48.904;9.126;2024-01-30T15:14:34;14.40;;;12.10;;
60819;SDS011;46641;48.904;9.126;2024-01-30T15:19:25;16.67;;;12.47;;
60819;SDS011;46641;48.904;9.126;2024-01-30T15:24:15;16.23;;;12.05;;
60819;SDS011;46641;48.904;9.126;2024-01-30T15:29:08;15.43;;;11.70;;
60819;SDS011;46641;48.904;9.126;2024-01-30T15:33:58;15.17;;;11.63;;
60819;SDS011;46641;48.904;9.126;2024-01-30T15:38:48;14.33;;;12.53;;
60819;SDS011;46641;48.904;9.126;2024-01-30T15:43:39;14.17;;;12.67;;
60819;SDS011;46641;48.904;9.126;2024-01-30T15:48:29;12.55;;;11.25;;
60819;SDS011;46641;48.904;9.126;2024-01-30T15:53:22;13.50;;;11.70;;
60819;SDS011;46641;48.904;9.126;2024-01-30T15:58:15;13.33;;;11.93;;
60819;SDS011;46641;48.904;9.126;2024-01-30T16:03:06;17.90;;;13.03;;
60819;SDS011;46641;48.904;9.126;2024-01-30T16:07:56;14.77;;;12.13;;
60819;SDS011;46641;48.904;9.126;2024-01-30T16:12:47;12.93;;;11.73;;
60819;SDS011;46641;48.904;9.126;2024-01-30T16:17:37;12.63;;;11.33;;
60819;SDS011;46641;48.904;9.126;2024-01-30T16:22:27;13.17;;;11.87;;
60819;SDS011;46641;48.904;9.126;2024-01-30T16:27:17;16.45;;;11.23;;
60819;SDS011;46641;48.904;9.126;2024-01-30T16:32:08;13.10;;;11.55;;
60819;SDS011;46641;48.904;9.126;2024-01-30T16:36:58;14.87;;;11.73;;
60819;SDS011;46641;48.904;9.126;2024-01-30T16:41:48;24.67;;;16.67;;
60819;SDS011;46641;48.904;9.126;2024-01-30T16:46:39;23.40;;;15.27;;
60819;SDS011;46641;48.904;9.126;2024-01-30T16:51:29;16.67;;;12.57;;
60819;SDS011;46641;48.904;9.126;2024-01-30T16:56:20;22.60;;;14.87;;
60819;SDS011;46641;48.904;9.126;2024-01-30T17:01:10;22.47;;;16.17;;
60819;SDS011;46641;48.904;9.126;2024-01-30T17:06:00;23.43;;;16.87;;
60819;SDS011;46641;48.904;9.126;2024-01-30T17:10:55;24.23;;;15.87;;
60819;SDS011;46641;48.904;9.126;2024-01-30T17:15:45;23.27;;;16.52;;
60819;SDS011;46641;48.904;9.126;2024-01-30T17:20:35;20.93;;;16.40;;
60819;SDS011;46641;48.904;9.126;2024-01-30T17:25:25;21.33;;;17.20;;
60819;SDS011;46641;48.904;9.126;2024-01-30T17:30:22;19.83;;;17.42;;
60819;SDS011;46641;48.904;9.126;2024-01-30T17:35:13;19.90;;;16.77;;
60819;SDS011;46641;48.904;9.126;2024-01-30T17:40:05;18.63;;;15.60;;
60819;SDS011;46641;48.904;9.126;2024-01-30T17:44:55;15.23;;;13.40;;
60819;SDS011;46641;48.904;9.126;2024-01-30T17:49:46;16.37;;;13.10;;
60819;SDS011;46641;48.904;9.126;2024-01-30T17:54:37;16.20;;;12.33;;
60819;SDS011;46641;48.904;9.126;2024-01-30T17:59:27;16.07;;;13.67;;
60819;SDS011;46641;48.904;9.126;2024-01-30T18:04:18;18.93;;;12.73;;
60819;SDS011;46641;48.904;9.126;2024-01-30T18:09:08;15.80;;;11.23;;
60819;SDS011;46641;48.904;9.126;2024-01-30T18:13:59;16.87;;;13.17;;
60819;SDS011;46641;48.904;9.126;2024-01-30T18:18:50;14.83;;;11.70;;
60819;SDS011;46641;48.904;9.126;2024-01-30T18:23:40;30.90;;;15.93;;
60819;SDS011;46641;48.904;9.126;2024-01-30T18:28:30;18.50;;;12.65;;
60819;SDS011;46641;48.904;9.126;2024-01-30T18:33:21;13.77;;;11.37;;
60819;SDS011;46641;48.904;9.126;2024-01-30T18:38:11;13.83;;;12.20;;
60819;SDS011;46641;48.904;9.126;2024-01-30T18:43:01;14.10;;;12.60;;
60819;SDS011;46641;48.904;9.126;2024-01-30T18:47:54;8.00;;;7.20;;
60819;SDS011;46641;48.904;9.126;2024-01-30T18:52:44;16.87;;;12.83;;
60819;SDS011;46641;48.904;9.126;2024-01-30T18:57:35;14.47;;;12.27;;
60819;SDS011;46641;48.904;9.126;2024-01-30T19:02:27;17.37;;;14.17;;
60819;SDS011;46641;48.904;9.126;2024-01-30T19:07:18;17.83;;;12.97;;
60819;SDS011;46641;48.904;9.126;2024-01-30T19:12:08;17.57;;;13.03;;
60819;SDS011;46641;48.904;9.126;2024-01-30T19:16:58;22.40;;;16.87;;
60819;SDS011;46641;48.904;9.126;2024-01-30T19:21:48;18.00;;;13.68;;
60819;SDS011;46641;48.904;9.126;2024-01-30T19:26:39;15.55;;;13.07;;
60819;SDS011;46641;48.904;9.126;2024-01-30T19:31:29;12.00;;;10.80;;
60819;SDS011;46641;48.904;9.126;2024-01-30T19:36:19;18.00;;;15.57;;
60819;SDS011;46641;48.904;9.126;2024-01-30T19:41:13;20.30;;;14.53;;
60819;SDS011;46641;48.904;9.126;2024-01-30T19:46:03;17.70;;;14.17;;
60819;SDS011;46641;48.904;9.126;2024-01-30T19:50:54;19.60;;;15.23;;
60819;SDS011;46641;48.904;9.126;2024-01-30T19:55:44;16.63;;;14.23;;
60819;SDS011;46641;48.904;9.126;2024-01-30T20:00:34;19.53;;;14.93;;
60819;SDS011;46641;48.904;9.126;2024-01-30T20:05:25;18.90;;;13.97;;
60819;SDS011;46641;48.904;9.126;2024-01-30T20:10:15;18.03;;;13.40;;
60819;SDS011;46641;48.904;9.126;2024-01-30T20:15:06;16.73;;;13.77;;
60819;SDS011;46641;48.904;9.126;2024-01-30T20:19:59;16.70;;;13.27;;
60819;SDS011;46641;48.904;9.126;2024-01-30T20:24:49;15.17;;;11.53;;
60819;SDS011;46641;48.904;9.126;2024-01-30T20:29:39;15.57;;;10.80;;
60819;SDS011;46641;48.904;9.126;2024-01-30T20:34:30;13.77;;;11.03;;
60819;SDS011;46641;48.904;9.126;2024-01-30T20:39:20;14.57;;;11.82;;
60819;SDS011;46641;48.904;9.126;2024-01-30T20:44:11;15.80;;;13.50;;
60819;SDS011;46641;48.904;9.126;2024-01-30T20:49:03;15.13;;;12.80;;
60819;SDS011;46641;48.904;9.126;2024-01-30T20:53:54;14.63;;;13.13;;
60819;SDS011;46641;48.904;9.126;2024-01-30T20:58:46;15.40;;;12.90;;
60819;SDS011;46641;48.904;9.126;2024-01-30T21:03:36;16.40;;;12.87;;
60819;SDS011;46641;48.904;9.126;2024-01-30T21:08:26;15.52;;;13.38;;
60819;SDS011;46641;48.904;9.126;2024-01-30T21:13:16;18.10;;;13.77;;
60819;SDS011;46641;48.904;9.126;2024-01-30T21:18:07;14.75;;;12.40;;
60819;SDS011;46641;48.904;9.126;2024-01-30T21:22:58;14.47;;;12.43;;
60819;SDS011;46641;48.904;9.126;2024-01-30T21:27:48;16.02;;;11.68;;
60819;SDS011;46641;48.904;9.126;2024-01-30T21:32:39;11.73;;;10.27;;
60819;SDS011;46641;48.904;9.126;2024-01-30T21:37:29;12.47;;;11.03;;
60819;SDS011;46641;48.904;9.126;2024-01-30T21:42:19;14.97;;;12.63;;
60819;SDS011;46641;48.904;9.126;2024-01-30T21:47:10;14.43;;;11.03;;
60819;SDS011;46641;48.904;9.126;2024-01-30T21:52:00;13.75;;;11.77;;
60819;SDS011;46641;48.904;9.126;2024-01-30T21:56:55;15.87;;;12.33;;
60819;SDS011;46641;48.904;9.126;2024-01-30T22:01:45;12.70;;;11.25;;
60819;SDS011;46641;48.904;9.126;2024-01-30T22:06:35;16.27;;;12.20;;
60819;SDS011;46641;48.904;9.126;2024-01-30T22:11:28;15.60;;;12.50;;
60819;SDS011;46641;48.904;9.126;2024-01-30T22:16:18;17.77;;;13.87;;
60819;SDS011;46641;48.904;9.126;2024-01-30T22:21:11;18.60;;;14.93;;
60819;SDS011;46641;48.904;9.126;2024-01-30T22:26:05;21.00;;;15.67;;
60819;SDS011;46641;48.904;9.126;2024-01-30T22:30:55;15.47;;;13.57;;
60819;SDS011;46641;48.904;9.126;2024-01-30T22:35:45;18.00;;;13.38;;
60819;SDS011;46641;48.904;9.126;2024-01-30T22:40:36;16.17;;;12.40;;
60819;SDS011;46641;48.904;9.126;2024-01-30T22:45:26;13.53;;;12.10;;
60819;SDS011;46641;48.904;9.126;2024-01-30T22:50:16;13.45;;;12.02;;
60819;SDS011;46641;48.904;9.126;2024-01-30T22:55:07;14.43;;;12.93;;
60819;SDS011;46641;48.904;9.126;2024-01-30T22:59:58;14.27;;;12.03;;
60819;SDS011;46641;48.904;9.126;2024-01-30T23:04:49;14.33;;;12.33;;
60819;SDS011;46641;48.904;9.126;2024-01-30T23:09:40;16.13;;;13.33;;
60819;SDS011;46641;48.904;9.126;2024-01-30T23:14:30;15.53;;;13.27;;
60819;SDS011;46641;48.904;9.126;2024-01-30T23:19:21;18.03;;;13.57;;
60819;SDS011;46641;48.904;9.126;2024-01-30T23:24:11;15.45;;;12.23;;
60819;SDS011;46641;48.904;9.126;2024-01-30T23:29:01;12.87;;;11.43;;
60819;SDS011;46641;48.904;9.126;2024-01-30T23:33:51;18.35;;;12.65;;
60819;SDS011;46641;48.904;9.126;2024-01-30T23:38:42;17.38;;;12.40;;
60819;SDS011;46641;48.904;9.126;2024-01-30T23:43:32;17.63;;;13.63;;
60819;SDS011;46641;48.904;9.126;2024-01-30T23:48:23;13.80;;;12.27;;
60819;SDS011;46641;48.904;9.126;2024-01-30T23:53:13;16.65;;;12.93;;
60819;SDS011;46641;48.904;9.126;2024-01-30T23:58:03;17.10;;;14.17;;
